Tiempo atmosférico en la estación meteorológica de Ocaña, Toledo (733 m.)



Fecha
DESCASC
Temp. máxima en grados centígrados (hora)
DESCASC
Temp. mínima en grados centígrados (hora)
DESCASC
Temp. media en grados centígrados
DESCASC
Racha de viento máxima en m/sg (hora)
DESCASC
Velocidad máxima media en intervalos de 10 minutos(hora)
DESCASC
Precipitaciones diarias en mm
DESCASC
Precipitaciones de 00:00 a 06:00 en mm
DESCASC
Precipitaciones de 06:00 a 12:00 en mm
DESCASC
Precipitaciones de 12:00 a 18:00 en mm
DESCASC
Precipitaciones de 18:00 a 24:00 en mm
DESCASC
19-09-2019 28.7 (16:30) 15.5 (07:30) 22.1 7.5 (16:20) 4.44 (23:40) 0 0 0 0 0
18-09-2019 27.1 (17:50) 12.8 (08:10) 20 5.28 (00:30) 3.06 (00:30) 0 0 0 0 0
17-09-2019 27.8 (16:10) 15.9 (00:00) 21.8 14.72 (19:40) 8.61 (19:50) 0 0 0 0 0
16-09-2019 24.9 (16:10) 16.2 (00:00) 20.6 6.67 (08:40) 5.28 (09:30) 0.2 0 0 0.2 0
15-09-2019 23.5 (16:30) 15.1 (00:00) 19.3 9.44 (09:20) 6.11 (22:10) 40 2.4 21 0.2 16.4
14-09-2019 17.7 (10:50) 13.8 (00:00) 15.8 11.39 (16:40) 6.94 (16:50) 10.4 0 1.2 9.2 0
13-09-2019 20.8 (12:40) 14.7 (00:00) 17.7 13.33 (12:50) 8.33 (17:00) 2.4 0 0 2.4 0
12-09-2019 26.4 (14:10) 14.1 (00:00) 20.3 14.44 (15:50) 9.72 (14:20) 0 0 0 0 0
11-09-2019 25.6 (16:50) 11.2 (00:00) 18.4 16.67 (13:50) 11.67 (13:50) 0 0 0 0 0
10-09-2019 22.2 (16:20) 12.9 (23:59) 17.6 14.72 (18:50) 9.72 (19:00) 0.4 0 0 0 0.4
09-09-2019 29.7 (17:00) 12.6 (07:40) 21.2 14.72 (19:10) 7.22 (19:10) 0 0 0 0 0
08-09-2019 28.8 (16:20) 15 (00:00) 21.9 10.56 (02:20) 6.39 (02:40) 0 0 0 0 0
07-09-2019 30 (16:20) 15.1 (00:00) 22.6 8.89 (13:30) 5.56 (01:00) 0 0 0 0 0
06-09-2019 26.4 (16:50) 10.8 (00:00) 18.6 10.83 (01:10) 7.78 (01:10) 0 0 0 0 0
05-09-2019 28.3 (15:30) 16.9 (00:00) 22.6 11.11 (09:30) 8.06 (09:00) 0 0 0 0 0
04-09-2019 32.8 (17:30) 17.1 (00:00) 24.9 8.33 (15:30) 5.28 (23:59) 0 0 0 0 0
03-09-2019 33.1 (17:30) 17.1 (00:00) 25.1 7.22 (10:00) 5.28 (10:00) 0 0 0 0 0
02-09-2019 31.6 (16:30) 18.1 (00:00) 24.9 8.61 (11:00) 5.28 (02:00) 0 0 0 0 0
01-09-2019 33.6 (15:00) 16.4 (00:00) 25 10.83 (19:20) 6.67 (19:10) 0 0 0 0 0
31-08-2019 33 (17:20) 15.8 (00:00) 24.4 6.39 (00:10) 4.17 (00:10) 0 0 0 0 0
30-08-2019 34.8 (16:50) 18.6 (00:00) 26.7 16.11 (19:10) 12.5 (19:10) 3.8 0 0 0 3.8
29-08-2019 33.2 (17:20) 17.7 (00:00) 25.5 7.78 (17:20) 4.17 (09:10) 0 0 0 0 0
28-08-2019 30.9 (17:30) 16.5 (00:00) 23.7 7.5 (16:30) 3.06 (13:50) 0 0 0 0 0
27-08-2019 27.6 (17:40) 13.8 (00:00) 20.7 8.33 (02:30) 6.39 (02:30) 0 0 0 0 0
26-08-2019 30.2 (17:10) 15.6 (00:00) 22.9 13.33 (17:10) 8.61 (03:50) 0 0 0 0 0
25-08-2019 33.4 (16:30) 19.1 (00:00) 26.3 11.94 (23:50) 6.67 (23:50) 0 0 0 0 0
24-08-2019 33.7 (18:10) 17 (00:00) 25.4 9.44 (15:00) 4.72 (09:40) 0 0 0 0 0
23-08-2019 32.2 (16:50) 17.4 (00:00) 24.8 8.06 (10:30) 5.56 (10:30) 0 0 0 0 0

Gráficas

Temp. máximas Temp. mínimas Temp. medias Precipitaciones Rachas de viento máximas Velocidades máximas media en intervalos de 10 minutos

Datos horarios

Fecha y hora oficial Temperatura (ºC) Velocidad del viento (km/h) Dirección del viento Racha (km/h) Dirección de racha Precipitación (mm) Presión (hPa) Tendencia (hPa) Humedad (%)
2019-09-21 23:00:00 17 3 Sudoeste 12 Oeste 0 -- -- 87
2019-09-21 22:00:00 18.2 8 Oeste 13 Noroeste 0 -- -- 83
2019-09-21 21:00:00 19.5 3 Oeste 10 Oeste 0 -- -- 79
2019-09-21 20:00:00 20.9 7 Sudoeste 15 Sudoeste 0 -- -- 71
2019-09-21 19:00:00 21.1 7 Sudoeste 27 Sudoeste 0 -- -- 70
2019-09-21 18:00:00 21.3 16 Sudoeste 28 Sudoeste 0.2 -- -- 71
2019-09-21 17:00:00 21.4 19 Sudoeste 30 Sudoeste 0 -- -- 66
2019-09-21 16:00:00 21.5 21 Sudoeste 33 Sudoeste 0 -- -- 69
2019-09-21 15:00:00 21.8 23 Sudoeste 32 Sudoeste 0 -- -- 66
2019-09-21 14:00:00 21.1 19 Sudoeste 31 Sudoeste 0 -- -- 70
2019-09-21 13:00:00 20.3 17 Sudoeste 27 Sudoeste 0 -- -- 73
2019-09-21 12:00:00 20.4 15 Sudoeste 22 Sudoeste 0 -- -- 72
2019-09-21 11:00:00 18.9 13 Sur 19 Sur 0 -- -- 82
2019-09-21 10:00:00 17.8 8 Sudeste 13 Sudeste 0 -- -- 90
2019-09-21 09:00:00 15.4 5 Sudeste 8 Sur 0 -- -- 94
2019-09-21 08:00:00 14.7 5 Sudeste 9 Sudeste 0 -- -- 95
2019-09-21 07:00:00 14.8 3 Sudeste 6 Sudeste 0 -- -- 95
2019-09-21 06:00:00 15.3 4 Sudeste 8 Sur 0 -- -- 95
2019-09-21 05:00:00 16 5 Sur 9 Sur 0 -- -- 96
2019-09-21 04:00:00 16.8 6 Sudoeste 19 Sudeste 0 -- -- 95
2019-09-21 03:00:00 17.3 10 Sudeste 18 Sur 0 -- -- 94
2019-09-21 02:00:00 17 12 Sur 28 Sudeste 0 -- -- 91
2019-09-21 01:00:00 17.7 19 Sur 31 Sur 0 -- -- 89
2019-09-21 00:00:00 18.4 15 Sudeste 24 Sudeste 0 -- -- 89
2019-09-20 23:00:00 18.2 9 Sudeste 16 Este 0 -- -- 83
2019-09-20 22:00:00 17.3 7 Sudeste 17 Sudeste 0 -- -- 81
2019-09-20 21:00:00 16.7 7 Sur 76 Sudoeste 0.6 -- -- 79
2019-09-20 20:00:00 22.3 20 Sudeste 32 Sudeste 0 -- -- 67
2019-09-20 19:00:00 23.4 19 Sudeste 31 Sudeste 0 -- -- 58
2019-09-20 18:00:00 23.9 20 Sudeste 36 Sur 0 -- -- 56
2019-09-20 17:00:00 24.9 20 Sudeste 34 Sudeste 0 -- -- 56
2019-09-20 16:00:00 25 19 Sudeste 31 Sudeste 0 -- -- 56
2019-09-20 15:00:00 24.3 17 Sudeste 28 Sudeste 0 -- -- 58
2019-09-20 14:00:00 23 18 Sudeste 32 Sudeste 0 -- -- 65
2019-09-20 13:00:00 21.8 18 Sudeste 34 Sur 0 -- -- 69
2019-09-20 12:00:00 21 21 Sudeste 37 Sudeste 0 -- -- 72
2019-09-20 11:00:00 20.3 20 Sudeste 39 Sudeste 0 -- -- 76
2019-09-20 10:00:00 18.4 22 Sudeste 36 Sudeste 0 -- -- 83
2019-09-20 09:00:00 17.2 17 Sudeste 34 Sudeste 0 -- -- 87
2019-09-20 08:00:00 17 17 Sudeste 27 Sudeste 0 -- -- 87
2019-09-20 07:00:00 17.4 15 Sudeste 27 Sudeste 0 -- -- 86
2019-09-20 06:00:00 17.5 16 Sudeste 30 Sudeste 0 -- -- 86
2019-09-20 05:00:00 17.9 13 Sudeste 25 Sudeste 0 -- -- 83
2019-09-20 04:00:00 18.3 11 Sudeste 28 Sudeste 0 -- -- 82
2019-09-20 03:00:00 18.5 16 Sudeste 28 Sudeste 0 -- -- 82
2019-09-20 02:00:00 19.3 17 Sudeste 28 Sudeste 0 -- -- 79
2019-09-20 01:00:00 19.9 17 Sudeste 29 Sudeste 0 -- -- 75
2019-09-20 00:00:00 20.1 14 Sudeste 24 Sudeste 0 -- -- 70
2019-09-19 23:00:00 21.1 12 Sudeste 21 Sudeste 0 -- -- 67
2019-09-19 22:00:00 22 10 Sudeste 20 Sudeste 0 -- -- 65
2019-09-19 21:00:00 23.4 7 Sudeste 12 Sudeste 0 -- -- 56
2019-09-19 20:00:00 25.1 8 Sur 13 Sudeste 0 -- -- 52
2019-09-19 19:00:00 26.8 7 Sur 15 Sur 0 -- -- 46
2019-09-19 18:00:00 27.3 13 Sur 22 Sur 0 -- -- 45
2019-09-19 17:00:00 28.6 10 Sur 27 Sur 0 -- -- 40
2019-09-19 16:00:00 28.2 9 Sudeste 19 Este 0 -- -- 41
2019-09-19 15:00:00 27.6 9 Sur 20 Sur 0 -- -- 44
2019-09-19 14:00:00 26.8 9 Sur 18 Sur 0 -- -- 49
2019-09-19 13:00:00 25 8 Sudeste 18 Sudeste 0 -- -- 58
2019-09-19 12:00:00 22.7 10 Sur 19 Sur 0 -- -- 66
2019-09-19 11:00:00 20.8 12 Sudeste 21 Sudeste 0 -- -- 71
2019-09-19 10:00:00 19.2 12 Sudeste 19 Sudeste 0 -- -- 76
2019-09-19 09:00:00 16.3 12 Este 19 Sudeste 0 -- -- 83
2019-09-19 08:00:00 15.6 13 Este 18 Sudeste 0 -- -- 81
2019-09-19 07:00:00 15.7 12 Sudeste 17 Sudeste 0 -- -- 81
2019-09-19 06:00:00 16.8 8 Sudeste 13 Sudeste 0 -- -- 75
2019-09-19 05:00:00 17 8 Sudeste 13 Este 0 -- -- 76
2019-09-19 04:00:00 16.6 8 Este 15 Este 0 -- -- 80
2019-09-19 03:00:00 17.2 5 Este 9 Este 0 -- -- 77
2019-09-19 02:00:00 18 4 Sudeste 8 Sudeste 0 -- -- 75
2019-09-19 01:00:00 19 5 Sudeste 9 Sudeste 0 -- -- 70
2019-09-19 00:00:00 19.3 5 Sudeste 8 Sudeste 0 -- -- 71
2019-09-18 23:00:00 19.7 5 Sudeste 8 Sudeste 0 -- -- 69
2019-09-18 22:00:00 20.9 4 Sudeste 9 Sur 0 -- -- 64
2019-09-18 21:00:00 22.3 6 Sur 9 Sur 0 -- -- 63
2019-09-18 20:00:00 25.2 4 Sur 8 Sur 0 -- -- 53
2019-09-18 19:00:00 26.3 3 Sudeste 9 Este 0 -- -- 42
2019-09-18 18:00:00 26.6 8 Sudoeste 17 Sudoeste 0 -- -- 44
2019-09-18 17:00:00 26.7 5 Oeste 12 Sudoeste 0 -- -- 43
2019-09-18 16:00:00 26.7 3 Sudeste 9 Oeste 0 -- -- 43
2019-09-18 15:00:00 25.5 3 Norte 13 Oeste 0 -- -- 46
2019-09-18 14:00:00 24.5 5 Oeste 13 Noroeste 0 -- -- 46
2019-09-18 13:00:00 23.3 2 Oeste 7 Noroeste 0 -- -- 52
2019-09-18 12:00:00 21.4 3 Oeste 9 Sudoeste 0 -- -- 61
2019-09-18 11:00:00 19.5 4 Sudoeste 12 Sur 0 -- -- 68
2019-09-18 10:00:00 17.5 5 Sur 9 Sur 0 -- -- 79
2019-09-18 09:00:00 14.7 3 Sur 5 Sudeste 0 -- -- 90
2019-09-18 08:00:00 12.9 0 Calma 4 Sudoeste 0 -- -- 92
2019-09-18 07:00:00 13.4 2 Sur 9 Sudeste 0 -- -- 91
2019-09-18 06:00:00 14.1 5 Sudeste 9 Este 0 -- -- 88
2019-09-18 05:00:00 14.3 6 Este 8 Este 0 -- -- 87
2019-09-18 04:00:00 14.6 6 Este 10 Este 0 -- -- 87
2019-09-18 03:00:00 14.4 6 Nordeste 8 Este 0 -- -- 86
2019-09-18 02:00:00 15.4 0 Calma 14 Oeste 0 -- -- 81
2019-09-18 01:00:00 16.2 9 Oeste 19 Oeste 0 -- -- 79
2019-09-18 00:00:00 16.4 3 Oeste 13 Sur 0 -- -- 77
2019-09-17 23:00:00 16.9 10 Sur 14 Sur 0 -- -- 80
2019-09-17 22:00:00 19.2 5 Noroeste 21 Oeste 0 -- -- 65
2019-09-17 21:00:00 20.7 13 Oeste 46 Este 0 -- -- 61
2019-09-15 18:00:00 -- -- -- -- -- -- -- -- --
2019-09-15 17:00:00 -- -- -- -- -- -- -- -- --
2019-09-15 16:00:00 -- -- -- -- -- -- -- -- --
2019-09-15 15:00:00 22.4 17 Sur 29 Sur 0 -- -- 85
2019-09-15 14:00:00 20.9 17 Sur 27 Sur 0 -- -- 86
2019-09-15 13:00:00 20.6 15 Sur 29 Sudeste 0 -- -- 87
2019-09-15 12:00:00 19 12 Sudeste 28 Sudeste 0 -- -- 91
2019-09-15 11:00:00 18.3 17 Sudeste 26 Sudeste 0 -- -- 91
2019-09-15 10:00:00 16.1 12 Este 34 Sudoeste 15.4 -- -- 95
2019-09-15 09:00:00 16.7 4 Sudeste 21 Este 0.4 -- -- 94
2019-09-15 08:00:00 16.6 11 Sudeste 18 Sudeste 0.8 -- -- 95
2019-09-15 07:00:00 16.1 7 Este 13 Este 4.4 -- -- 95
2019-09-15 06:00:00 16.2 9 Este 18 Noroeste 2 -- -- 91
2019-09-15 05:00:00 16.3 12 Oeste 28 Sudoeste 0.4 -- -- 89
2019-09-15 04:00:00 15.8 11 Este 17 Este 0 -- -- 94
2019-09-15 03:00:00 16.1 8 Nordeste 13 Nordeste 0 -- -- 92
2019-09-15 02:00:00 15.6 8 Nordeste 13 Este 0 -- -- 95
2019-09-15 01:00:00 15.3 9 Este 14 Nordeste 0 -- -- 93
2019-09-15 00:00:00 16 11 Este 18 Este 0 -- -- 91
2019-09-14 23:00:00 16.2 13 Nordeste 19 Nordeste 0 -- -- 90
2019-09-14 22:00:00 16.1 13 Nordeste 17 Nordeste 0 -- -- 92
2019-09-14 21:00:00 16.2 4 Norte 20 Nordeste 0 -- -- 93
2019-09-14 20:00:00 16.4 15 Nordeste 23 Nordeste 0 -- -- 92
2019-09-14 19:00:00 16.5 16 Este 28 Este 0 -- -- 93
2019-09-14 18:00:00 16 22 Este 32 Este 0 -- -- 93
2019-09-14 17:00:00 16.4 24 Este 41 Este 1.6 -- -- 93
2019-09-14 16:00:00 15.7 15 Sudeste 24 Sur 1.8 -- -- 93
2019-09-14 15:00:00 16 22 Sur 33 Sur 1.8 -- -- 92
2019-09-14 14:00:00 16.8 12 Este 27 Este 0.4 -- -- 90
2019-09-14 13:00:00 15 21 Este 33 Este 3.6 -- -- 94
2019-09-14 12:00:00 15.9 12 Sudeste 26 Sudeste 1.2 -- -- 87
2019-09-14 11:00:00 17.6 17 Este 26 Este 0 -- -- 73
2019-09-14 10:00:00 16.6 8 Este 13 Este 0 -- -- 81
2019-09-14 09:00:00 15 10 Este 23 Este 0 -- -- 83
2019-09-14 08:00:00 14.4 12 Nordeste 17 Este 0 -- -- 85
2019-09-14 07:00:00 14 10 Este 15 Este 0 -- -- 86
2019-09-14 06:00:00 -- -- -- -- -- -- -- -- --
2019-09-14 05:00:00 -- -- -- -- -- -- -- -- --
2019-09-14 04:00:00 -- -- -- -- -- -- -- -- --
2019-09-14 03:00:00 15.5 3 Norte 12 Nordeste 0 -- -- 90
2019-09-14 02:00:00 15.4 4 Nordeste 12 Este 0 -- -- 90
2019-09-14 01:00:00 16.8 6 Este 35 Este 0 -- -- 88
2019-09-14 00:00:00 17.6 22 Este 33 Este 0 -- -- 85
2019-09-13 23:00:00 17.9 15 Este 24 Sudeste 0 -- -- 84
2019-09-13 22:00:00 17.3 8 Nordeste 20 Nordeste 0 -- -- 86
2019-09-13 21:00:00 16.7 11 Nordeste 22 Nordeste 0 -- -- 88
2019-09-13 20:00:00 17.2 16 Nordeste 31 Este 0 -- -- 87
2019-09-13 19:00:00 17.7 19 Nordeste 28 Nordeste 0 -- -- 82
2019-09-13 18:00:00 16.5 19 Nordeste 39 Nordeste 0.6 -- -- 88
2019-09-13 17:00:00 18 30 Nordeste 42 Nordeste 0 -- -- 79
2019-09-13 16:00:00 16.7 25 Nordeste 35 Nordeste 0 -- -- 86
2019-09-13 15:00:00 15.5 22 Nordeste 38 Este 0.6 -- -- 90
2019-09-13 14:00:00 15.7 22 Este 37 Este 1.2 -- -- 86
2019-09-13 13:00:00 17.5 23 Sudeste 48 Sudeste 0 -- -- 72
2019-09-13 12:00:00 19.9 19 Nordeste 30 Nordeste 0 -- -- 45
2019-09-13 11:00:00 19.4 20 Nordeste 26 Nordeste 0 -- -- 49
2019-09-13 10:00:00 18.3 15 Nordeste 21 Nordeste 0 -- -- 50
2019-09-13 09:00:00 16.9 12 Nordeste 21 Nordeste 0 -- -- 56
2019-09-13 08:00:00 15.9 12 Nordeste 19 Nordeste 0 -- -- 62
2019-09-13 07:00:00 16.6 11 Nordeste 15 Nordeste 0 -- -- 60
2019-09-13 06:00:00 14.7 6 Nordeste 8 Nordeste 0 -- -- 63
2019-09-13 05:00:00 15.7 5 Norte 10 Sudeste 0 -- -- 62
2019-09-13 04:00:00 16 6 Nordeste 17 Este 0 -- -- 59
2019-09-13 03:00:00 17.3 17 Este 24 Este 0 -- -- 54
2019-09-13 02:00:00 17.8 13 Sudeste 25 Sudeste 0 -- -- 57
2019-09-13 01:00:00 19 13 Sudeste 22 Sudeste 0 -- -- 55
2019-09-13 00:00:00 19.2 8 Este 11 Este 0 -- -- 52
2019-09-12 23:00:00 20.9 7 Sur 15 Sur 0 -- -- 50
2019-09-12 22:00:00 22.2 8 Sudeste 19 Sudeste 0 -- -- 46
2019-09-12 21:00:00 22.5 10 Sudeste 31 Este 0 -- -- 47
2019-09-12 20:00:00 23.9 22 Este 35 Este 0 -- -- 45
2019-09-12 19:00:00 24.9 19 Este 42 Este 0 -- -- 43
2019-09-12 18:00:00 25.1 28 Sudeste 44 Sudeste 0 -- -- 42
2019-09-12 17:00:00 23.9 28 Sudeste 45 Este 0 -- -- 45
2019-09-12 16:00:00 24.4 27 Este 52 Este 0 -- -- 41
2019-09-12 15:00:00 25.7 29 Este 49 Este 0 -- -- 39
2019-09-12 14:00:00 26.1 30 Este 42 Este 0 -- -- 40
2019-09-12 13:00:00 22.5 14 Nordeste 30 Este 0 -- -- 46
2019-09-12 12:00:00 22.9 21 Este 31 Nordeste 0 -- -- 45
2019-09-12 11:00:00 20.8 19 Nordeste 30 Nordeste 0 -- -- 49
2019-09-12 10:00:00 18.3 18 Nordeste 29 Nordeste 0 -- -- 54
2019-09-12 09:00:00 16.2 17 Nordeste 27 Nordeste 0 -- -- 59
2019-09-12 08:00:00 14.8 18 Nordeste 28 Nordeste 0 -- -- 61
2019-09-12 07:00:00 14.9 22 Nordeste 35 Nordeste 0 -- -- 60
2019-09-12 06:00:00 14.9 23 Nordeste 31 Nordeste 0 -- -- 58
2019-09-12 05:00:00 14.6 21 Nordeste 31 Nordeste 0 -- -- 58
2019-09-12 04:00:00 14.2 13 Nordeste 22 Nordeste 0 -- -- 59
2019-09-12 03:00:00 15.1 15 Nordeste 19 Nordeste 0 -- -- 56
2019-09-12 02:00:00 14.7 10 Norte 16 Nordeste 0 -- -- 56
2019-09-12 01:00:00 14.7 8 Este 13 Este 0 -- -- 65
2019-09-12 00:00:00 16.1 9 Este 17 Sudeste 0 -- -- 61
2019-09-11 23:00:00 18.3 11 Este 22 Este 0 -- -- 55
2019-09-11 22:00:00 19.7 17 Este 31 Este 0 -- -- 41
2019-09-11 21:00:00 21.1 22 Este 48 Este 0 -- -- 38
2019-09-11 20:00:00 21.7 26 Este 46 Este 0 -- -- 37
2019-09-11 19:00:00 23.1 36 Este 47 Este 0 -- -- 34
2019-09-11 18:00:00 24.6 32 Nordeste 47 Nordeste 0 -- -- 32
2019-09-11 17:00:00 25.5 29 Nordeste 50 Nordeste 0 -- -- 31
2019-09-11 16:00:00 25.3 34 Este 56 Nordeste 0 -- -- 32
2019-09-11 15:00:00 24.8 36 Nordeste 57 Nordeste 0 -- -- 32
2019-09-11 14:00:00 23.8 38 Nordeste 60 Nordeste 0 -- -- 33
2019-09-11 13:00:00 22.9 29 Nordeste 47 Nordeste 0 -- -- 36
2019-09-11 12:00:00 20.6 32 Norte 56 Nordeste 0 -- -- 41
2019-09-11 11:00:00 18.2 39 Nordeste 57 Nordeste 0 -- -- 48
2019-09-11 10:00:00 15.2 22 Norte 38 Norte 0 -- -- 61
2019-09-11 09:00:00 12.8 19 Norte 30 Norte 0 -- -- 69
2019-09-11 08:00:00 11.4 23 Norte 35 Norte 0 -- -- 70
2019-09-11 07:00:00 11.4 16 Norte 24 Norte 0 -- -- 66
2019-09-11 06:00:00 11.5 14 Norte 25 Norte 0 -- -- 66
2019-09-11 05:00:00 11.3 14 Norte 25 Noroeste 0 -- -- 68
2019-09-11 04:00:00 11.6 16 Norte 24 Norte 0 -- -- 69
2019-09-11 03:00:00 11.6 12 Norte 21 Norte 0 -- -- 69
2019-09-11 02:00:00 11.8 13 Norte 21 Norte 0 -- -- 69
2019-09-11 01:00:00 12.6 14 Norte 27 Norte 0 -- -- 67
2019-09-11 00:00:00 12.9 17 Norte 32 Norte 0 -- -- 66
2019-09-10 23:00:00 13.6 20 Norte 31 Norte 0 -- -- 64
2019-09-10 22:00:00 13.8 13 Norte 43 Norte 0 -- -- 60
2019-09-10 21:00:00 14 24 Norte 44 Norte 0 -- -- 59
2019-09-10 20:00:00 14 27 Norte 48 Norte 0.2 -- -- 62
2019-09-10 19:00:00 14.2 35 Norte 53 Nordeste 0.2 -- -- 70
2019-09-10 18:00:00 18.8 33 Norte 48 Norte 0 -- -- 35
2019-09-10 17:00:00 21.2 27 Norte 42 Nordeste 0 -- -- 29
2019-09-10 16:00:00 21.7 16 Norte 39 Norte 0 -- -- 29
2019-09-10 15:00:00 21.1 15 Noroeste 44 Norte 0 -- -- 30
2019-09-10 14:00:00 20.4 30 Norte 49 Norte 0 -- -- 30
2019-09-10 13:00:00 18.8 32 Norte 50 Norte 0 -- -- 31
2019-09-10 12:00:00 18.2 27 Norte 40 Norte 0 -- -- 36
2019-09-10 11:00:00 17.2 26 Norte 43 Norte 0 -- -- 38
2019-09-10 10:00:00 15.8 28 Norte 43 Norte 0 -- -- 44
2019-09-10 09:00:00 15.1 18 Norte 39 Norte 0 -- -- 53
2019-09-10 08:00:00 14.8 18 Norte 27 Norte 0 -- -- 58
2019-09-10 07:00:00 14.6 16 Norte 25 Norte 0 -- -- 58
2019-09-10 06:00:00 15.5 9 Noroeste 23 Norte 0 -- -- 54
2019-09-10 05:00:00 15.8 7 Noroeste 19 Noroeste 0 -- -- 48
2019-09-10 04:00:00 17.1 11 Noroeste 24 Noroeste 0 -- -- 45
2019-09-10 03:00:00 18.5 9 Noroeste 27 Oeste 0 -- -- 41
2019-09-10 02:00:00 19.5 11 Oeste 29 Oeste 0 -- -- 35
2019-09-10 01:00:00 20.7 15 Oeste 31 Oeste 0 -- -- 31
2019-09-10 00:00:00 22 15 Oeste 32 Oeste 0 -- -- 23
2019-09-09 23:00:00 23 17 Oeste 35 Oeste 0 -- -- 20
2019-09-09 22:00:00 23.8 18 Oeste 36 Oeste 0 -- -- 23
2019-09-09 21:00:00 25 19 Oeste 36 Oeste 0 -- -- 21
2019-09-09 20:00:00 26.1 19 Oeste 53 Oeste 0 -- -- 19
2019-09-09 19:00:00 27.8 23 Oeste 46 Oeste 0 -- -- 17
2019-09-09 18:00:00 28.9 23 Oeste 43 Noroeste 0 -- -- 17
2019-09-09 17:00:00 29.7 21 Oeste 44 Oeste 0 -- -- 16
2019-09-09 16:00:00 29.5 21 Oeste 41 Oeste 0 -- -- 20
2019-09-09 15:00:00 28.8 20 Oeste 40 Noroeste 0 -- -- 26
2019-09-09 14:00:00 27.9 18 Oeste 33 Sudoeste 0 -- -- 27
2019-09-09 13:00:00 26.6 13 Oeste 29 Oeste 0 -- -- 31
2019-09-09 12:00:00 25.3 10 Oeste 21 Oeste 0 -- -- 33
2019-09-09 11:00:00 22.6 8 Sudoeste 14 Sudoeste 0 -- -- 41
2019-09-09 10:00:00 19.9 6 Sur 11 Sudeste 0 -- -- 50
2019-09-09 09:00:00 15.6 5 Sur 10 Sudeste 0 -- -- 66
2019-09-09 08:00:00 12.6 0 Calma 9 Sudeste 0 -- -- 61
2019-09-09 07:00:00 14.1 0 Calma 6 Noroeste 0 -- -- 56
2019-09-09 06:00:00 15.6 4 Sudoeste 10 Noroeste 0 -- -- 52
2019-09-09 05:00:00 17 5 Noroeste 10 Oeste 0 -- -- 49
2019-09-09 04:00:00 17.3 6 Oeste 12 Sur 0 -- -- 58
2019-09-09 03:00:00 17.6 8 Sur 13 Sur 0 -- -- 52
2019-09-09 02:00:00 18.9 4 Sudoeste 9 Sudoeste 0 -- -- 53
2019-09-09 01:00:00 19.6 5 Oeste 11 Sudoeste 0 -- -- 53
2019-09-09 00:00:00 19.4 7 Sudoeste 10 Sudoeste 0 -- -- 50
2019-09-08 23:00:00 20.4 6 Sur 11 Sur 0 -- -- 45
2019-09-08 22:00:00 22.5 4 Sudoeste 10 Oeste 0 -- -- 38
2019-09-08 21:00:00 24.7 6 Sudoeste 12 Oeste 0 -- -- 34
2019-09-08 20:00:00 26.8 3 Noroeste 14 Oeste 0 -- -- 33
2019-09-08 19:00:00 27.9 8 Oeste 20 Norte 0 -- -- 36
2019-09-08 18:00:00 27.8 9 Norte 18 Nordeste 0 -- -- 37
2019-09-08 17:00:00 27.9 9 Norte 21 Norte 0 -- -- 39
2019-09-08 16:00:00 27.9 6 Sudoeste 14 Sudoeste 0 -- -- 42
2019-09-08 15:00:00 26.8 5 Sudeste 19 Sudeste 0 -- -- 45
2019-09-08 14:00:00 26.2 8 Sudeste 18 Este 0 -- -- 49
2019-09-08 13:00:00 24.4 8 Este 18 Este 0 -- -- 55
2019-09-08 12:00:00 22.7 8 Este 21 Este 0 -- -- 60
2019-09-08 11:00:00 20.6 13 Este 22 Este 0 -- -- 66
2019-09-08 10:00:00 18.8 13 Este 20 Este 0 -- -- 73
2019-09-08 09:00:00 16.7 9 Nordeste 13 Nordeste 0 -- -- 81
2019-09-08 08:00:00 15 8 Nordeste 13 Este 0 -- -- 85
2019-09-08 07:00:00 16.6 9 Este 23 Sudeste 0 -- -- 80
2019-09-08 06:00:00 17.1 12 Sudeste 25 Sudeste 0 -- -- 81
2019-09-08 05:00:00 17.5 15 Sudeste 30 Sudeste 0 -- -- 79
2019-09-08 04:00:00 18.1 21 Sudeste 36 Sudeste 0 -- -- 75
2019-09-08 03:00:00 18.6 23 Sudeste 38 Sudeste 0 -- -- 76
2019-09-08 02:00:00 19.5 21 Sudeste 34 Este 0 -- -- 72
2019-09-08 01:00:00 20.7 15 Este 24 Sudeste 0 -- -- 64
2019-09-08 00:00:00 21.6 12 Sudeste 22 Sudeste 0 -- -- 54
2019-09-07 23:00:00 20 5 Nordeste 9 Nordeste 0 -- -- 40
2019-09-07 22:00:00 22.3 7 Nordeste 10 Nordeste 0 -- -- 37
2019-09-07 21:00:00 24.2 7 Norte 13 Norte 0 -- -- 35
2019-09-07 20:00:00 26.2 9 Norte 20 Norte 0 -- -- 33
2019-09-07 19:00:00 27.7 8 Nordeste 19 Nordeste 0 -- -- 32
2019-09-07 18:00:00 28.5 6 Norte 18 Norte 0 -- -- 33
2019-09-07 17:00:00 28 6 Norte 15 Noroeste 0 -- -- 35
2019-09-07 16:00:00 29.9 4 Oeste 17 Sur 0 -- -- 32
2019-09-07 15:00:00 28.4 4 Sudeste 24 Este 0 -- -- 39
2019-09-07 14:00:00 26 8 Este 32 Este 0 -- -- 48
2019-09-07 13:00:00 24.1 12 Este 24 Este 0 -- -- 53
2019-09-07 12:00:00 22.8 16 Este 28 Nordeste 0 -- -- 57
2019-09-07 11:00:00 19.8 18 Este 24 Este 0 -- -- 57
2019-09-07 10:00:00 17.6 18 Nordeste 25 Nordeste 0 -- -- 56
2019-09-07 09:00:00 17.5 13 Nordeste 21 Nordeste 0 -- -- 54
2019-09-07 08:00:00 17.5 11 Nordeste 19 Nordeste 0 -- -- 55
2019-09-07 07:00:00 17.7 12 Nordeste 23 Nordeste 0 -- -- 54
2019-09-07 06:00:00 17.7 15 Nordeste 22 Nordeste 0 -- -- 55
2019-09-07 05:00:00 16.8 13 Nordeste 19 Nordeste 0 -- -- 56
2019-09-07 04:00:00 16.7 12 Nordeste 17 Nordeste 0 -- -- 63
2019-09-07 03:00:00 15.5 9 Este 16 Este 0 -- -- 48
2019-09-07 02:00:00 16.6 13 Este 24 Este 0 -- -- 41
2019-09-07 01:00:00 17.6 20 Este 26 Este 0 -- -- 38
2019-09-07 00:00:00 19 17 Nordeste 25 Nordeste 0 -- -- 35
2019-09-06 23:00:00 18.6 7 Norte 10 Norte 0 -- -- 35
2019-09-06 22:00:00 20.3 6 Norte 10 Norte 0 -- -- 32
2019-09-06 21:00:00 22.3 6 Norte 10 Norte 0 -- -- 31
2019-09-06 20:00:00 24.3 5 Nordeste 13 Noroeste 0 -- -- 29
2019-09-06 19:00:00 25.7 9 Norte 27 Nordeste 0 -- -- 25
2019-09-06 18:00:00 26.2 9 Norte 19 Norte 0 -- -- 25
2019-09-06 17:00:00 26.3 10 Nordeste 15 Norte 0 -- -- 25
2019-09-06 16:00:00 25.8 8 Este 17 Nordeste 0 -- -- 28
2019-09-06 15:00:00 25.1 5 Este 16 Este 0 -- -- 33
2019-09-06 14:00:00 23.1 8 Norte 15 Norte 0 -- -- 41
2019-09-06 13:00:00 21.6 5 Norte 20 Nordeste 0 -- -- 45
2019-09-06 12:00:00 19.7 11 Nordeste 18 Norte 0 -- -- 43
2019-09-06 11:00:00 17.1 13 Nordeste 24 Nordeste 0 -- -- 48
2019-09-06 10:00:00 14.5 18 Nordeste 27 Nordeste 0 -- -- 54
2019-09-06 09:00:00 11.8 18 Nordeste 27 Nordeste 0 -- -- 62
2019-09-06 08:00:00 11.1 17 Nordeste 24 Nordeste 0 -- -- 63
2019-09-06 07:00:00 11 18 Nordeste 29 Nordeste 0 -- -- 62
2019-09-06 06:00:00 11.4 21 Nordeste 28 Nordeste 0 -- -- 60
2019-09-06 05:00:00 12.3 23 Nordeste 32 Nordeste 0 -- -- 56
2019-09-06 04:00:00 13.2 20 Nordeste 31 Nordeste 0 -- -- 51
2019-09-06 03:00:00 14.4 26 Nordeste 39 Nordeste 0 -- -- 46
2019-09-06 02:00:00 15.4 26 Nordeste 39 Nordeste 0 -- -- 43
2019-09-06 01:00:00 16.5 23 Nordeste 37 Nordeste 0 -- -- 47
2019-09-06 00:00:00 18 27 Nordeste 40 Nordeste 0 -- -- 43
2019-09-05 23:00:00 19.2 22 Nordeste 31 Nordeste 0 -- -- 35
2019-09-05 22:00:00 20.7 16 Nordeste 23 Nordeste 0 -- -- 29
2019-09-05 21:00:00 22.2 13 Nordeste 24 Nordeste 0 -- -- 26
2019-09-05 20:00:00 24.9 19 Nordeste 29 Nordeste 0 -- -- 25
2019-09-05 19:00:00 26.5 22 Nordeste 35 Nordeste 0 -- -- 22
2019-09-05 18:00:00 27.7 19 Nordeste 36 Nordeste 0 -- -- 19
2019-09-05 17:00:00 28.1 21 Nordeste 38 Norte 0 -- -- 21
2019-09-05 16:00:00 28.2 17 Nordeste 34 Nordeste 0 -- -- 28
2019-09-05 15:00:00 27.8 17 Nordeste 30 Nordeste 0 -- -- 30
2019-09-05 14:00:00 27 19 Nordeste 30 Nordeste 0 -- -- 34
2019-09-05 13:00:00 25.3 21 Nordeste 33 Este 0 -- -- 39
2019-09-05 12:00:00 23.2 26 Nordeste 38 Nordeste 0 -- -- 43
2019-09-05 11:00:00 21.6 28 Nordeste 39 Nordeste 0 -- -- 45
2019-09-05 10:00:00 19.2 28 Nordeste 40 Nordeste 0 -- -- 51
2019-09-05 09:00:00 17.7 29 Nordeste 39 Nordeste 0 -- -- 48
2019-09-05 08:00:00 17.3 24 Nordeste 36 Nordeste 0 -- -- 46
2019-09-05 07:00:00 17.2 19 Nordeste 26 Nordeste 0 -- -- 56
2019-09-05 06:00:00 18.2 15 Nordeste 24 Nordeste 0 -- -- 53
2019-09-05 05:00:00 18.8 15 Nordeste 22 Nordeste 0 -- -- 52
2019-09-05 04:00:00 19.5 15 Nordeste 27 Este 0 -- -- 49
2019-09-05 03:00:00 20.2 18 Este 32 Nordeste 0 -- -- 46
2019-09-05 02:00:00 21.9 23 Nordeste 32 Nordeste 0 -- -- 40
2019-09-05 01:00:00 22.9 24 Nordeste 32 Nordeste 0 -- -- 37
2019-09-05 00:00:00 24.4 19 Nordeste 28 Nordeste 0 -- -- 29
2019-09-04 23:00:00 23.5 2 Nordeste 4 Este 0 -- -- 30
2019-09-04 22:00:00 24.5 4 Nordeste 8 Nordeste 0 -- -- 27
2019-09-04 21:00:00 27.4 6 Nordeste 15 Noroeste 0 -- -- 24
2019-09-04 20:00:00 30.3 8 Norte 21 Noroeste 0 -- -- 22
2019-09-04 19:00:00 31.8 10 Norte 26 Norte 0 -- -- 21
2019-09-04 18:00:00 32.3 13 Norte 26 Noroeste 0 -- -- 23
2019-09-04 17:00:00 32.6 10 Oeste 25 Oeste 0 -- -- 22
2019-09-04 16:00:00 32.5 11 Norte 30 Oeste 0 -- -- 25
2019-09-04 15:00:00 32 6 Norte 17 Noroeste 0 -- -- 30
2019-09-04 14:00:00 30.7 5 Norte 17 Sudeste 0 -- -- 36
2019-09-04 13:00:00 28.9 7 Nordeste 16 Este 0 -- -- 44
2019-09-04 12:00:00 27.1 6 Sur 14 Sudeste 0 -- -- 54
2019-09-04 11:00:00 24.4 9 Sudeste 19 Sudeste 0 -- -- 65
2019-09-04 10:00:00 21.7 11 Sudeste 21 Sudeste 0 -- -- 77
2019-09-04 09:00:00 19.5 12 Este 18 Este 0 -- -- 86
2019-09-04 08:00:00 17.2 9 Este 17 Sudeste 0 -- -- 87
2019-09-04 07:00:00 19.1 9 Sudeste 18 Sudeste 0 -- -- 85
2019-09-04 06:00:00 19.6 10 Sudeste 18 Sudeste 0 -- -- 81
2019-09-04 05:00:00 20.4 13 Sudeste 19 Sudeste 0 -- -- 76
2019-09-04 04:00:00 21.2 11 Sudeste 22 Sudeste 0 -- -- 69
2019-09-04 03:00:00 22.1 14 Este 20 Este 0 -- -- 49
2019-09-04 02:00:00 23.3 11 Nordeste 16 Nordeste 0 -- -- 34
2019-09-04 01:00:00 23.9 9 Nordeste 18 Norte 0 -- -- 33
2019-09-04 00:00:00 26.1 13 Nordeste 24 Norte 0 -- -- 31
2019-09-03 23:00:00 25.7 11 Norte 19 Norte 0 -- -- 38
2019-09-03 22:00:00 25.7 6 Este 10 Este 0 -- -- 37
2019-09-03 21:00:00 28.1 4 Este 13 Nordeste 0 -- -- 34
2019-09-03 20:00:00 30.6 4 Noroeste 15 Noroeste 0 -- -- 32
2019-09-03 19:00:00 32 7 Noroeste 22 Norte 0 -- -- 27
2019-09-03 18:00:00 32.7 10 Noroeste 24 Norte 0 -- -- 25
2019-09-03 17:00:00 32.4 10 Noroeste 23 Norte 0 -- -- 26
2019-09-03 16:00:00 32 12 Norte 22 Oeste 0 -- -- 31
2019-09-03 15:00:00 31.4 6 Oeste 15 Sur 0 -- -- 38
2019-09-03 14:00:00 29.9 5 Sudeste 18 Sur 0 -- -- 43
2019-09-03 13:00:00 28.1 6 Sudeste 15 Sudeste 0 -- -- 51
2019-09-03 12:00:00 25.9 9 Sudeste 19 Este 0 -- -- 60
2019-09-03 11:00:00 23.9 13 Sudeste 23 Este 0 -- -- 67
2019-09-03 10:00:00 21.4 19 Sudeste 26 Sudeste 0 -- -- 75
2019-09-03 09:00:00 19.4 12 Este 17 Este 0 -- -- 84
2019-09-03 08:00:00 17.3 9 Este 12 Este 0 -- -- 90
2019-09-03 07:00:00 18.6 9 Este 18 Sudeste 0 -- -- 85
2019-09-03 06:00:00 19.4 9 Sudeste 20 Este 0 -- -- 83
2019-09-03 05:00:00 19.9 14 Sudeste 23 Sudeste 0 -- -- 80
2019-09-03 04:00:00 20.9 13 Sudeste 24 Sudeste 0 -- -- 72
2019-09-03 03:00:00 21.5 15 Sudeste 24 Sudeste 0 -- -- 69
2019-09-03 02:00:00 22.4 14 Sudeste 24 Sudeste 0 -- -- 65
2019-09-03 01:00:00 22.9 17 Este 23 Este 0 -- -- 59
2019-09-03 00:00:00 22.6 4 Sudeste 6 Sudeste 0 -- -- 52
2019-09-02 23:00:00 24.3 0 Calma 13 Sudeste 0 -- -- 48
2019-09-02 22:00:00 26.5 9 Sudeste 18 Sudeste 0 -- -- 44
2019-09-02 21:00:00 28.4 5 Este 14 Sudeste 0 -- -- 38
2019-09-02 20:00:00 29.9 6 Sudeste 17 Este 0 -- -- 36
2019-09-02 19:00:00 30.9 8 Este 17 Nordeste 0 -- -- 35
2019-09-02 18:00:00 30.8 6 Sudeste 19 Sudeste 0 -- -- 37
2019-09-02 17:00:00 30 5 Nordeste 20 Este 0 -- -- 39
2019-09-02 16:00:00 31.2 8 Nordeste 22 Este 0 -- -- 38
2019-09-02 15:00:00 30.5 10 Sudeste 25 Este 0 -- -- 41
2019-09-02 14:00:00 29.1 10 Sudeste 26 Sur 0 -- -- 44
2019-09-02 13:00:00 28 13 Este 25 Este 0 -- -- 46
2019-09-02 12:00:00 26.1 17 Este 28 Este 0 -- -- 52
2019-09-02 11:00:00 24.1 17 Este 31 Este 0 -- -- 57
2019-09-02 10:00:00 21.9 17 Este 22 Este 0 -- -- 63
2019-09-02 09:00:00 19.6 14 Nordeste 20 Nordeste 0 -- -- 71
2019-09-02 08:00:00 18.1 13 Nordeste 20 Nordeste 0 -- -- 76
2019-09-02 07:00:00 18.7 14 Nordeste 21 Nordeste 0 -- -- 75
2019-09-02 06:00:00 19.6 15 Nordeste 24 Nordeste 0 -- -- 73
2019-09-02 05:00:00 20.2 16 Nordeste 22 Nordeste 0 -- -- 70
2019-09-02 04:00:00 20.9 15 Nordeste 25 Nordeste 0 -- -- 66
2019-09-02 03:00:00 22 18 Nordeste 26 Nordeste 0 -- -- 60
2019-09-02 02:00:00 22.8 19 Nordeste 26 Nordeste 0 -- -- 56
2019-09-02 01:00:00 24 15 Nordeste 22 Nordeste 0 -- -- 51
2019-09-02 00:00:00 24.5 14 Nordeste 22 Nordeste 0 -- -- 47
2019-09-01 23:00:00 24.9 7 Nordeste 12 Este 0 -- -- 43
2019-09-01 22:00:00 26.5 9 Este 13 Nordeste 0 -- -- 39
2019-09-01 21:00:00 27.8 0 Calma 27 Oeste 0 -- -- 36
2019-09-01 20:00:00 29.2 10 Noroeste 39 Sudoeste 0 -- -- 35
2019-09-01 19:00:00 31.3 17 Sudoeste 27 Sudoeste 0 -- -- 28
2019-09-01 18:00:00 32.7 8 Oeste 24 Sudoeste 0 -- -- 28
2019-09-01 17:00:00 33 11 Oeste 24 Oeste 0 -- -- 27
2019-09-01 16:00:00 33 11 Noroeste 25 Noroeste 0 -- -- 27
2019-09-01 15:00:00 33.6 6 Oeste 21 Sudoeste 0 -- -- 27
2019-09-01 14:00:00 32.5 7 Oeste 17 Oeste 0 -- -- 29
2019-09-01 13:00:00 30.9 5 Oeste 14 Oeste 0 -- -- 32
2019-09-01 12:00:00 28.6 5 Sur 11 Sur 0 -- -- 38
2019-09-01 11:00:00 25.6 6 Sur 16 Sudeste 0 -- -- 46
2019-09-01 10:00:00 22.8 12 Sudeste 20 Sur 0 -- -- 56
2019-09-01 09:00:00 19.4 12 Sudeste 17 Sur 0 -- -- 63
2019-09-01 08:00:00 17.5 8 Sudeste 13 Sudeste 0 -- -- 65
2019-09-01 07:00:00 17.3 6 Este 14 Este 0 -- -- 65
2019-09-01 06:00:00 18.8 5 Sudeste 17 Noroeste 0 -- -- 57
2019-09-01 05:00:00 19.8 11 Sudeste 17 Sudeste 0 -- -- 55
2019-09-01 04:00:00 20.4 8 Sudeste 14 Sudeste 0 -- -- 52
2019-09-01 03:00:00 20.8 9 Sudeste 17 Sudeste 0 -- -- 48
2019-09-01 02:00:00 22 10 Sudeste 15 Sudeste 0 -- -- 40
2019-09-01 01:00:00 23.3 6 Sudeste 14 Sudeste 0 -- -- 37
2019-09-01 00:00:00 23.7 7 Sudeste 12 Sudeste 0 -- -- 36
2019-08-31 23:00:00 24.7 8 Sudeste 11 Sudeste 0 -- -- 34
2019-08-31 22:00:00 25 7 Sudeste 9 Sudeste 0 -- -- 34
2019-08-31 21:00:00 26.5 7 Este 10 Este 0 -- -- 37
2019-08-31 20:00:00 30.7 3 Sur 12 Sudeste 0 -- -- 26
2019-08-31 19:00:00 32.1 8 Este 12 Sudeste 0 -- -- 24
2019-08-31 18:00:00 32.5 6 Sur 18 Sudeste 0 -- -- 24
2019-08-31 17:00:00 32.3 4 Noroeste 12 Sur 0 -- -- 27
2019-08-31 16:00:00 32.1 5 Sur 14 Sur 0 -- -- 29
2019-08-31 15:00:00 30.9 5 Sudoeste 15 Sudoeste 0 -- -- 31
2019-08-31 14:00:00 29.8 9 Sudeste 16 Sudeste 0 -- -- 34
2019-08-31 13:00:00 28.1 7 Sudeste 17 Sudeste 0 -- -- 47
2019-08-31 12:00:00 26.1 7 Sur 14 Sur 0 -- -- 52
2019-08-31 11:00:00 24.2 9 Sur 16 Sudeste 0 -- -- 58
2019-08-31 10:00:00 22.1 8 Sudeste 13 Sudeste 0 -- -- 62
2019-08-31 09:00:00 18.9 10 Este 14 Sudeste 0 -- -- 71
2019-08-31 08:00:00 16.4 10 Este 14 Este 0 -- -- 79
2019-08-31 07:00:00 16 10 Este 14 Este 0 -- -- 81
2019-08-31 06:00:00 16 11 Este 15 Este 0 -- -- 82
2019-08-31 05:00:00 17.1 11 Este 16 Este 0 -- -- 78
2019-08-31 04:00:00 16.6 10 Este 13 Este 0 -- -- 82
2019-08-31 03:00:00 18 5 Nordeste 19 Nordeste 0 -- -- 75
2019-08-31 02:00:00 18 9 Este 17 Sudeste 0 -- -- 76
2019-08-31 01:00:00 20.2 13 Sudeste 23 Sudeste 0 -- -- 65
2019-08-31 00:00:00 20.4 15 Sudeste 32 Este 0 -- -- 65
2019-08-30 23:00:00 22.3 10 Sur 29 Sur 0 -- -- 57
2019-08-30 22:00:00 21.6 10 Sur 23 Este 1.2 -- -- 61
2019-08-30 21:00:00 20.9 3 Sudeste 36 Nordeste 2.6 -- -- 74
2019-08-30 20:00:00 22.6 23 Nordeste 58 Este 0 -- -- 61
2019-08-30 19:00:00 23.1 42 Nordeste 57 Nordeste 0 -- -- 58
2019-08-30 18:00:00 34.5 8 Sudoeste 17 Sudoeste 0 -- -- 24
2019-08-30 17:00:00 34.5 8 Este 34 Sur 0 -- -- 24
2019-08-30 16:00:00 34 9 Este 24 Sur 0 -- -- 26
2019-08-30 15:00:00 33.8 10 Sur 21 Sudeste 0 -- -- 27
2019-08-30 14:00:00 32.5 12 Sudeste 21 Este 0 -- -- 33
2019-08-30 13:00:00 30.9 12 Sudeste 21 Este 0 -- -- 37
2019-08-30 12:00:00 28.7 11 Sudeste 21 Sudeste 0 -- -- 43
2019-08-30 11:00:00 26.1 14 Sudeste 22 Sudeste 0 -- -- 50
2019-08-30 10:00:00 23.4 15 Sudeste 21 Sudeste 0 -- -- 61
2019-08-30 09:00:00 20.5 9 Sudeste 15 Sudeste 0 -- -- 73
2019-08-30 08:00:00 18.7 11 Sudeste 17 Sudeste 0 -- -- 78
2019-08-30 07:00:00 18.8 7 Sudeste 17 Este 0 -- -- 78
2019-08-30 06:00:00 19.5 12 Este 20 Este 0 -- -- 75
2019-08-30 05:00:00 19.8 12 Este 21 Este 0 -- -- 70
2019-08-30 04:00:00 21.4 11 Sudeste 20 Sudeste 0 -- -- 64
2019-08-30 03:00:00 22.3 9 Sudeste 26 Sudeste 0 -- -- 59
2019-08-30 02:00:00 23.4 17 Sudeste 27 Sudeste 0 -- -- 54
2019-08-30 01:00:00 23.9 18 Sudeste 28 Sudeste 0 -- -- 49
2019-08-30 00:00:00 24.9 9 Sudeste 15 Sudeste 0 -- -- 39
2019-08-29 23:00:00 25.6 9 Sudeste 13 Sudeste 0 -- -- 39
2019-08-29 22:00:00 26.8 6 Sudeste 11 Este 0 -- -- 34
2019-08-29 21:00:00 29.1 8 Sudeste 18 Sudeste 0 -- -- 31
2019-08-29 20:00:00 30.9 11 Sudeste 20 Sudeste 0 -- -- 29
2019-08-29 19:00:00 32.3 9 Sudeste 19 Sur 0 -- -- 29
2019-08-29 18:00:00 32.9 5 Este 28 Sudoeste 0 -- -- 29
2019-08-29 17:00:00 32.9 8 Sudeste 24 Sudoeste 0 -- -- 30
2019-08-29 16:00:00 32.8 7 Sur 21 Sudoeste 0 -- -- 30
2019-08-29 15:00:00 31.7 11 Sudeste 22 Sur 0 -- -- 32
2019-08-29 14:00:00 30.6 8 Sudeste 19 Sudeste 0 -- -- 38
2019-08-29 13:00:00 29.1 10 Sudeste 19 Este 0 -- -- 44
2019-08-29 12:00:00 27.9 11 Sudeste 19 Este 0 -- -- 48
2019-08-29 11:00:00 25.9 12 Sudeste 22 Sudeste 0 -- -- 54
2019-08-29 10:00:00 22.9 12 Sudeste 22 Sudeste 0 -- -- 64
2019-08-29 09:00:00 19.4 12 Este 22 Este 0 -- -- 74
2019-08-29 08:00:00 17.8 14 Este 19 Este 0 -- -- 77
2019-08-29 07:00:00 18.2 12 Sudeste 22 Sudeste 0 -- -- 74
2019-08-29 06:00:00 18.5 12 Sudeste 18 Sudeste 0 -- -- 66
2019-08-29 05:00:00 19.4 11 Sudeste 18 Sudeste 0 -- -- 60
2019-08-29 04:00:00 20.4 11 Sudeste 18 Este 0 -- -- 56
2019-08-29 03:00:00 19.9 7 Sudeste 12 Este 0 -- -- 55
2019-08-29 02:00:00 21.7 6 Sudeste 12 Sudeste 0 -- -- 49
2019-08-29 01:00:00 22.5 5 Sudeste 14 Sudeste 0 -- -- 48
2019-08-29 00:00:00 23.2 8 Sudeste 13 Sudeste 0 -- -- 47
2019-08-28 23:00:00 24.1 6 Sudeste 10 Sudeste 0 -- -- 46
2019-08-28 22:00:00 24.5 5 Sudeste 10 Este 0 -- -- 43
2019-08-28 21:00:00 26.8 6 Este 12 Este 0 -- -- 36
2019-08-28 20:00:00 29 5 Oeste 15 Oeste 0 -- -- 30
2019-08-28 19:00:00 30.3 4 Noroeste 17 Noroeste 0 -- -- 30
2019-08-28 18:00:00 30.4 7 Noroeste 17 Oeste 0 -- -- 29
2019-08-28 17:00:00 30.7 10 Noroeste 27 Oeste 0 -- -- 30
2019-08-28 16:00:00 30.3 8 Norte 25 Oeste 0 -- -- 32
2019-08-28 15:00:00 29.7 10 Oeste 22 Oeste 0 -- -- 33
2019-08-28 14:00:00 29 8 Sudoeste 20 Sudoeste 0 -- -- 35
2019-08-28 13:00:00 28.1 5 Sudeste 14 Sudoeste 0 -- -- 39
2019-08-28 12:00:00 26.9 4 Sur 12 Este 0 -- -- 44
2019-08-28 11:00:00 25.2 4 Sudeste 11 Sur 0 -- -- 49
2019-08-28 10:00:00 22.4 7 Sur 12 Sur 0 -- -- 58
2019-08-28 09:00:00 19.3 5 Sudeste 12 Sudeste 0 -- -- 68
2019-08-28 08:00:00 16.6 5 Sudeste 12 Sudeste 0 -- -- 76
2019-08-28 07:00:00 16.7 6 Sudeste 14 Sudeste 0 -- -- 76
2019-08-28 06:00:00 17.1 8 Sudeste 13 Sudeste 0 -- -- 74
2019-08-28 05:00:00 17.4 8 Sudeste 14 Sudeste 0 -- -- 71
2019-08-28 04:00:00 17.4 5 Sudeste 16 Sudoeste 0 -- -- 63
2019-08-28 03:00:00 18.5 6 Sudeste 9 Sudeste 0 -- -- 58
2019-08-28 02:00:00 18.4 6 Sudeste 9 Sudeste 0 -- -- 56
2019-08-28 01:00:00 18.4 4 Este 7 Este 0 -- -- 54
2019-08-28 00:00:00 19.2 5 Este 6 Este 0 -- -- 50
2019-08-27 23:00:00 21 0 Calma 3 Este 0 -- -- 53
2019-08-27 22:00:00 22.2 0 Calma 8 Norte 0 -- -- 49
2019-08-27 21:00:00 23.7 5 Norte 20 Norte 0 -- -- 46
2019-08-27 20:00:00 25 11 Norte 23 Norte 0 -- -- 42
2019-08-27 19:00:00 26.5 9 Noroeste 23 Oeste 0 -- -- 37
2019-08-27 18:00:00 27.5 12 Noroeste 24 Noroeste 0 -- -- 35
2019-08-27 17:00:00 27.4 9 Oeste 23 Oeste 0 -- -- 36
2019-08-27 16:00:00 27 6 Noroeste 18 Sudoeste 0 -- -- 39
2019-08-27 15:00:00 26.1 6 Este 19 Norte 0 -- -- 39
2019-08-27 14:00:00 24.8 7 Noroeste 21 Oeste 0 -- -- 44
2019-08-27 13:00:00 24.1 5 Noroeste 17 Norte 0 -- -- 47
2019-08-27 12:00:00 22.4 7 Noroeste 12 Oeste 0 -- -- 55
2019-08-27 11:00:00 20.3 4 Sudeste 17 Sudeste 0 -- -- 67
2019-08-27 10:00:00 18 13 Sur 19 Sudeste 0 -- -- 76
2019-08-27 09:00:00 16.1 8 Este 11 Este 0 -- -- 81
2019-08-27 08:00:00 14 6 Este 7 Este 0 -- -- 88
2019-08-27 07:00:00 14.8 6 Nordeste 13 Norte 0 -- -- 86
2019-08-27 06:00:00 15.4 8 Norte 15 Norte 0 -- -- 82
2019-08-27 05:00:00 15.5 7 Norte 15 Norte 0 -- -- 80
2019-08-27 04:00:00 15.9 5 Sur 25 Sudeste 0 -- -- 80
2019-08-27 03:00:00 16 19 Este 30 Este 0 -- -- 77
2019-08-27 02:00:00 15.3 14 Este 23 Este 0 -- -- 79
2019-08-27 01:00:00 14.7 11 Sudeste 24 Sudeste 0 -- -- 85
2019-08-27 00:00:00 15.6 14 Este 42 Sudeste 0 -- -- 79
2019-08-26 23:00:00 17.2 16 Norte 28 Norte 0 -- -- 81
2019-08-26 22:00:00 16.8 22 Nordeste 37 Nordeste 0 -- -- 82
2019-08-26 21:00:00 20.6 15 Norte 32 Oeste 0 -- -- 64
2019-08-26 20:00:00 24.4 8 Este 34 Nordeste 0 -- -- 49
2019-08-26 19:00:00 23.3 23 Norte 34 Sudeste 0 -- -- 53
2019-08-26 18:00:00 28.8 23 Sudeste 48 Sudeste 0 -- -- 40
2019-08-26 17:00:00 30 26 Sudeste 46 Sudeste 0 -- -- 38
2019-08-26 16:00:00 29.2 22 Sudeste 37 Sudeste 0 -- -- 41
2019-08-26 15:00:00 28.2 19 Sudeste 31 Sudeste 0 -- -- 44
2019-08-26 14:00:00 27.6 15 Sudeste 29 Sudeste 0 -- -- 47
2019-08-26 13:00:00 27 13 Sur 36 Sudeste 0 -- -- 47
2019-08-26 12:00:00 24.5 22 Sudeste 36 Sudeste 0 -- -- 56
2019-08-26 11:00:00 22.7 21 Sudeste 35 Sudeste 0 -- -- 64
2019-08-26 10:00:00 21 22 Sudeste 41 Sudeste 0 -- -- 70
2019-08-26 09:00:00 19.8 19 Sudeste 35 Sudeste 0 -- -- 74
2019-08-26 08:00:00 18.8 22 Sudeste 37 Sudeste 0 -- -- 75
2019-08-26 07:00:00 19.6 22 Sudeste 39 Sudeste 0 -- -- 68
2019-08-26 06:00:00 20.3 26 Sudeste 42 Sudeste 0 -- -- 60
2019-08-26 05:00:00 20.8 21 Sudeste 46 Sudeste 0 -- -- 59
2019-08-26 04:00:00 21.1 29 Sudeste 46 Sudeste 0 -- -- 60
2019-08-26 03:00:00 21.7 28 Sudeste 45 Sudeste 0 -- -- 58
2019-08-26 02:00:00 22.4 24 Sudeste 41 Sudeste 0 -- -- 51
2019-08-26 01:00:00 23.4 21 Sudeste 42 Sudeste 0 -- -- 46
2019-08-26 00:00:00 24.5 24 Sudeste 43 Sudeste 0 -- -- 43
2019-08-25 23:00:00 25.5 18 Sudeste 31 Sudeste 0 -- -- 35
2019-08-25 22:00:00 26.5 13 Sudeste 27 Sudeste 0 -- -- 31
2019-08-25 21:00:00 28.2 15 Sudeste 29 Sudeste 0 -- -- 27
2019-08-25 20:00:00 29.9 21 Sudeste 36 Sudeste 0 -- -- 22
2019-08-25 19:00:00 32 19 Sudeste 34 Sudeste 0 -- -- 21
2019-08-25 18:00:00 32.2 16 Sudeste 32 Sudeste 0 -- -- 24
2019-08-25 17:00:00 32.2 16 Sudeste 27 Sudeste 0 -- -- 25
2019-08-25 16:00:00 33 14 Sur 30 Sur 0 -- -- 27
2019-08-25 15:00:00 32.4 13 Sudeste 30 Sur 0 -- -- 29
2019-08-25 14:00:00 31.3 16 Sudeste 28 Sudeste 0 -- -- 33
2019-08-25 13:00:00 29.7 15 Sur 30 Sudeste 0 -- -- 37
2019-08-25 12:00:00 27.8 17 Sudeste 27 Sudeste 0 -- -- 43
2019-08-25 11:00:00 25.2 16 Sudeste 29 Sudeste 0 -- -- 53
2019-08-25 10:00:00 22.8 16 Sudeste 29 Este 0 -- -- 61
2019-08-25 09:00:00 20.5 15 Sudeste 27 Sudeste 0 -- -- 69
2019-08-25 08:00:00 19.2 21 Sudeste 32 Sudeste 0 -- -- 74
2019-08-25 07:00:00 19.4 19 Sudeste 33 Sudeste 0 -- -- 76
2019-08-25 06:00:00 20 13 Sudeste 30 Sudeste 0 -- -- 72
2019-08-25 05:00:00 21 15 Sudeste 35 Este 0 -- -- 68
2019-08-25 04:00:00 21.2 16 Sudeste 30 Sudeste 0 -- -- 64
2019-08-25 03:00:00 21.9 17 Sudeste 28 Sudeste 0 -- -- 57
2019-08-25 02:00:00 22.7 15 Sudeste 31 Sudeste 0 -- -- 49
2019-08-25 01:00:00 23.7 18 Sudeste 36 Sudeste 0 -- -- 39
2019-08-25 00:00:00 22.4 5 Sudeste 7 Sudeste 0 -- -- 29
2019-08-24 23:00:00 25 4 Sur 10 Sudeste 0 -- -- 28
2019-08-24 22:00:00 26.2 3 Sudeste 5 Sudeste 0 -- -- 26
2019-08-24 21:00:00 29.1 3 Sur 9 Sudoeste 0 -- -- 23
2019-08-24 20:00:00 31.4 2 Norte 11 Noroeste 0 -- -- 21
2019-08-24 19:00:00 33.4 4 Oeste 13 Norte 0 -- -- 20
2019-08-24 18:00:00 33.3 8 Oeste 16 Oeste 0 -- -- 20
2019-08-24 17:00:00 33.4 4 Sudoeste 22 Este 0 -- -- 21
2019-08-24 16:00:00 33.4 10 Sudeste 18 Este 0 -- -- 22
2019-08-24 15:00:00 32.9 9 Sur 34 Sudeste 0 -- -- 24
2019-08-24 14:00:00 31.6 6 Sudeste 21 Sur 0 -- -- 25
2019-08-24 13:00:00 30 10 Sur 23 Sur 0 -- -- 30
2019-08-24 12:00:00 28.4 9 Sudeste 20 Sudeste 0 -- -- 33
2019-08-24 11:00:00 25.6 12 Sur 26 Sudeste 0 -- -- 38
2019-08-24 10:00:00 23.2 14 Sudeste 25 Este 0 -- -- 44
2019-08-24 09:00:00 18.9 15 Este 22 Este 0 -- -- 54
2019-08-24 08:00:00 17.3 15 Este 21 Este 0 -- -- 62
2019-08-24 07:00:00 17.9 13 Sudeste 23 Este 0 -- -- 62
2019-08-24 06:00:00 18.6 13 Sudeste 23 Sudeste 0 -- -- 59
2019-08-24 05:00:00 19.2 13 Sudeste 22 Sudeste 0 -- -- 55
2019-08-24 04:00:00 20 12 Sudeste 23 Sudeste 0 -- -- 53
2019-08-24 03:00:00 20.5 13 Sudeste 24 Sudeste 0 -- -- 46
2019-08-24 02:00:00 21.2 13 Sudeste 24 Sudeste 0 -- -- 39
2019-08-24 01:00:00 21.5 12 Sudeste 18 Sudeste 0 -- -- 29
2019-08-24 00:00:00 22.6 6 Sudeste 11 Sudeste 0 -- -- 28
2019-08-23 23:00:00 23.3 5 Sudeste 8 Sur 0 -- -- 28
2019-08-23 22:00:00 25.4 6 Sur 10 Sudeste 0 -- -- 27
2019-08-23 21:00:00 28.6 4 Sudeste 14 Este 0 -- -- 26
2019-08-23 20:00:00 30.3 5 Sudeste 17 Este 0 -- -- 25
2019-08-23 19:00:00 31.5 9 Sur 20 Nordeste 0 -- -- 24
2019-08-23 18:00:00 32.1 6 Sur 22 Este 0 -- -- 25
2019-08-23 17:00:00 32.1 11 Este 22 Este 0 -- -- 25
2019-08-23 16:00:00 31.9 12 Sudeste 23 Este 0 -- -- 26
2019-08-23 15:00:00 31.2 9 Sudeste 27 Este 0 -- -- 27
2019-08-23 14:00:00 30.4 12 Sudeste 29 Este 0 -- -- 30
2019-08-23 13:00:00 28.7 11 Sudeste 24 Sudeste 0 -- -- 32
2019-08-23 12:00:00 26.8 11 Sudeste 24 Este 0 -- -- 35
2019-08-23 11:00:00 24.2 17 Sudeste 29 Este 0 -- -- 43
2019-08-23 10:00:00 21.9 20 Este 29 Este 0 -- -- 52
2019-08-23 09:00:00 20 18 Este 27 Este 0 -- -- 58
2019-08-23 08:00:00 17.7 14 Este 27 Sudeste 0 -- -- 63
2019-08-23 07:00:00 18.4 16 Sudeste 27 Sudeste 0 -- -- 60
2019-08-23 06:00:00 18.9 15 Sudeste 27 Sudeste 0 -- -- 63
2019-08-23 05:00:00 19.5 14 Sudeste 26 Sudeste 0 -- -- 66
2019-08-23 04:00:00 20.4 16 Sudeste 25 Sudeste 0 -- -- 66
2019-08-23 03:00:00 21.2 15 Sudeste 26 Sudeste 0 -- -- 64
2019-08-23 02:00:00 21.6 14 Sudeste 27 Sudeste 0 -- -- 53
2019-08-23 01:00:00 22.6 17 Sudeste 27 Sudeste 0 -- -- 40
2019-08-23 00:00:00 23.4 8 Sudeste 16 Sudeste 0 -- -- 33